METAR AND TAF INFORMATION
METAR FOR SVMI
ADDS - METARS form results

(0308 UTC 23 September 2019)
Data provider http://aviationweather.gov/metar/data/
 
METAR text: SVMI 230300Z 09003KT 9999 BKN016 25/22 Q1011
Conditions at: SVMI (CARACAS/S. BOLIV, VE) observed 0300 UTC 23 September 2019
Temperature: 25.0°C (77°F)
Dewpoint: 22.0°C (72°F) [RH = 83%]
Pressure (altimeter): 29.85 inches Hg (1011.0 mb)
Winds: from the E (90 degrees) at 3 MPH (3 knots; 1.5 m/s)
Visibility: 6 or more miles (10+ km)
Ceiling: 1600 feet AGL
Clouds: broken clouds at 1600 feet AGL
Weather: no significant weather observed at this time

METAR text: SVMI 230900Z 09007KT 9999 BKN016 27/23 Q1011
Conditions at: SVMI (CARACAS/S. BOLIV, VE) observed 0236 UTC 23 September 2019
Temperature: 27.0°C (81°F)
Dewpoint: 23.0°C (73°F) [RH = 79%]
Pressure (altimeter): 29.85 inches Hg (1011.0 mb)
Winds: from the E (90 degrees) at 8 MPH (7 knots; 3.6 m/s)
Visibility: 6 or more miles (10+ km)
Ceiling: 1600 feet AGL
Clouds: broken clouds at 1600 feet AGL
Weather: no significant weather observed at this time

METAR text: SVMI 230213Z 09002KT 9999 BKN016 26/23 Q1011
Conditions at: SVMI (CARACAS/S. BOLIV, VE) observed 0213 UTC 23 September 2019
Temperature: 26.0°C (79°F)
Dewpoint: 23.0°C (73°F) [RH = 84%]
Pressure (altimeter): 29.85 inches Hg (1011.0 mb)
Winds: from the E (90 degrees) at 2 MPH (2 knots; 1.0 m/s)
Visibility: 6 or more miles (10+ km)
Ceiling: 1600 feet AGL
Clouds: broken clouds at 1600 feet AGL
Weather: no significant weather observed at this time

Forecast for: SVMI (CARACAS/S. BOLIV, VE)
Text: TAF SVMI 222200Z 2218/2318 09012G35KT 4000 +TSSHRA SCT010BC(N) OVC013 TX26/18Z TN22/06Z
Forecast period: 1800 UTC 22 September 2019 to 1800 UTC 23 September 2019
Forecast type: FROM: standard forecast or significant change
Winds: from the E (90 degrees) at 14 MPH (12 knots; 6.2 m/s)
gusting to 40 MPH (35 knots; 18.0 m/s)
Visibility: 2.49 miles (4.01 km)
Ceiling: 1300 feet AGL
Clouds: overcast cloud deck at 1300 feet AGL
Weather: SHRA TS  (rain showers, thunderstorm)
Text: PROB40
Forecast period: 1800 to 2200 UTC 22 September 2019
Forecast type: TEMPORARY: The following changes expected for less than half the time period
Winds: from the E (90 degrees) at 16 MPH (14 knots; 7.2 m/s)
gusting to 46 MPH (40 knots; 20.6 m/s)
Visibility: 2.49 miles (4.01 km)
Ceiling: unknown
Clouds: missing
Weather: SHRA TS  (rain showers, thunderstorm)

 AIRPORT MAP

 RUNWAY INFORMATION
Runway 09 Runway length 9930 ft Runway width 145 ft
Runway elevation 230 ft Runway displaced threshold 0 ft Runway heading 76
Runway 27 Runway length 9930 ft Runway width 145 ft
Runway elevation 101 ft Runway displaced threshold 0 ft Runway heading 256
Runway 10 Runway length 11483 ft Runway width 148 ft
Runway elevation 235 ft Runway displaced threshold 0 ft Runway heading 88
Runway 28 Runway length 11483 ft Runway width 148 ft
Runway elevation 147 ft Runway displaced threshold 0 ft Runway heading 268

 AIRPORT FREQUENCIES
Type APP Name MAIQUETIA Frequency 120.1 MHZ
Type ATIS Name ATIS Frequency 114.8 MHZ
Type CLD Name CLD Frequency 119.5 MHZ
Type DEP Name MAIQUETIA Frequency 118.4 MHZ
Type GND Name GND Frequency 121.9 MHZ
Type RDO Name MAIQUETIA Frequency 130.1 MHZ
Type TWR Name MAIQUETIA Frequency 118.1 MHZ

 AIRPORT NEAR NAVIGATION AIDS
Type VOR-DME Name Maiquetia Frequency 114800 KHZ
Type NDB Name Maiquetia Frequency 292 KHZ